sensor_id;sensor_type;location;lat;lon;timestamp;P1;durP1;ratioP1;P2;durP2;ratioP2
11125;SDS011;5617;54.046;10.676;2023-03-01T00:01:02;4.80;;;3.70;;
11125;SDS011;5617;54.046;10.676;2023-03-01T00:03:11;5.23;;;3.83;;
11125;SDS011;5617;54.046;10.676;2023-03-01T00:05:21;4.67;;;3.50;;
11125;SDS011;5617;54.046;10.676;2023-03-01T00:07:28;4.47;;;3.40;;
11125;SDS011;5617;54.046;10.676;2023-03-01T00:09:36;3.43;;;3.07;;
11125;SDS011;5617;54.046;10.676;2023-03-01T00:11:44;5.67;;;3.50;;
11125;SDS011;5617;54.046;10.676;2023-03-01T00:13:55;6.03;;;3.67;;
11125;SDS011;5617;54.046;10.676;2023-03-01T00:16:04;8.23;;;3.93;;
11125;SDS011;5617;54.046;10.676;2023-03-01T00:18:13;5.47;;;3.90;;
11125;SDS011;5617;54.046;10.676;2023-03-01T00:20:21;4.50;;;3.67;;
11125;SDS011;5617;54.046;10.676;2023-03-01T00:22:28;5.07;;;3.80;;
11125;SDS011;5617;54.046;10.676;2023-03-01T00:24:36;4.77;;;3.80;;
11125;SDS011;5617;54.046;10.676;2023-03-01T00:26:44;5.40;;;4.07;;
11125;SDS011;5617;54.046;10.676;2023-03-01T00:28:53;4.67;;;3.67;;
11125;SDS011;5617;54.046;10.676;2023-03-01T00:31:05;5.30;;;3.83;;
11125;SDS011;5617;54.046;10.676;2023-03-01T00:33:13;5.70;;;4.10;;
11125;SDS011;5617;54.046;10.676;2023-03-01T00:35:21;5.40;;;3.50;;
11125;SDS011;5617;54.046;10.676;2023-03-01T00:37:28;5.10;;;3.53;;
11125;SDS011;5617;54.046;10.676;2023-03-01T00:39:36;5.37;;;3.80;;
11125;SDS011;5617;54.046;10.676;2023-03-01T00:41:44;4.50;;;3.80;;
11125;SDS011;5617;54.046;10.676;2023-03-01T00:43:52;6.40;;;3.90;;
11125;SDS011;5617;54.046;10.676;2023-03-01T00:46:01;4.73;;;4.03;;
11125;SDS011;5617;54.046;10.676;2023-03-01T00:48:10;4.67;;;3.83;;
11125;SDS011;5617;54.046;10.676;2023-03-01T00:50:18;5.00;;;4.10;;
11125;SDS011;5617;54.046;10.676;2023-03-01T00:52:26;4.70;;;3.60;;
11125;SDS011;5617;54.046;10.676;2023-03-01T00:54:34;4.23;;;3.57;;
11125;SDS011;5617;54.046;10.676;2023-03-01T00:56:42;3.50;;;3.20;;
11125;SDS011;5617;54.046;10.676;2023-03-01T00:58:50;5.80;;;3.40;;
11125;SDS011;5617;54.046;10.676;2023-03-01T01:00:59;4.57;;;3.23;;
11125;SDS011;5617;54.046;10.676;2023-03-01T01:03:08;3.70;;;3.30;;
11125;SDS011;5617;54.046;10.676;2023-03-01T01:05:16;4.63;;;3.40;;
11125;SDS011;5617;54.046;10.676;2023-03-01T01:07:26;7.27;;;3.60;;
11125;SDS011;5617;54.046;10.676;2023-03-01T01:09:34;4.27;;;3.50;;
11125;SDS011;5617;54.046;10.676;2023-03-01T01:11:42;4.90;;;3.60;;
11125;SDS011;5617;54.046;10.676;2023-03-01T01:13:51;5.43;;;3.30;;
11125;SDS011;5617;54.046;10.676;2023-03-01T01:16:01;4.17;;;3.43;;
11125;SDS011;5617;54.046;10.676;2023-03-01T01:18:09;4.60;;;3.37;;
11125;SDS011;5617;54.046;10.676;2023-03-01T01:20:17;4.67;;;3.70;;
11125;SDS011;5617;54.046;10.676;2023-03-01T01:22:25;4.70;;;3.40;;
11125;SDS011;5617;54.046;10.676;2023-03-01T01:24:34;4.47;;;3.47;;
11125;SDS011;5617;54.046;10.676;2023-03-01T01:26:44;5.57;;;3.63;;
11125;SDS011;5617;54.046;10.676;2023-03-01T01:28:55;5.00;;;3.27;;
11125;SDS011;5617;54.046;10.676;2023-03-01T01:31:04;4.03;;;3.30;;
11125;SDS011;5617;54.046;10.676;2023-03-01T01:33:12;5.33;;;3.53;;
11125;SDS011;5617;54.046;10.676;2023-03-01T01:35:20;3.83;;;3.30;;
11125;SDS011;5617;54.046;10.676;2023-03-01T01:37:27;6.17;;;3.60;;
11125;SDS011;5617;54.046;10.676;2023-03-01T01:39:38;3.90;;;3.50;;
11125;SDS011;5617;54.046;10.676;2023-03-01T01:41:46;4.27;;;3.53;;
11125;SDS011;5617;54.046;10.676;2023-03-01T01:44:11;4.37;;;3.63;;
11125;SDS011;5617;54.046;10.676;2023-03-01T01:46:24;5.17;;;3.90;;
11125;SDS011;5617;54.046;10.676;2023-03-01T01:48:37;4.63;;;3.47;;
11125;SDS011;5617;54.046;10.676;2023-03-01T01:50:50;5.10;;;3.50;;
11125;SDS011;5617;54.046;10.676;2023-03-01T01:53:04;4.10;;;3.33;;
11125;SDS011;5617;54.046;10.676;2023-03-01T01:55:15;6.27;;;3.40;;
11125;SDS011;5617;54.046;10.676;2023-03-01T01:57:27;5.57;;;3.97;;
11125;SDS011;5617;54.046;10.676;2023-03-01T01:59:41;6.10;;;3.40;;
11125;SDS011;5617;54.046;10.676;2023-03-01T02:01:53;4.97;;;3.70;;
11125;SDS011;5617;54.046;10.676;2023-03-01T02:04:02;4.73;;;3.70;;
11125;SDS011;5617;54.046;10.676;2023-03-01T02:06:12;5.23;;;3.90;;
11125;SDS011;5617;54.046;10.676;2023-03-01T02:08:25;4.93;;;3.87;;
11125;SDS011;5617;54.046;10.676;2023-03-01T02:10:36;5.57;;;4.00;;
11125;SDS011;5617;54.046;10.676;2023-03-01T02:12:46;5.33;;;4.17;;
11125;SDS011;5617;54.046;10.676;2023-03-01T02:14:54;4.50;;;3.90;;
11125;SDS011;5617;54.046;10.676;2023-03-01T02:17:03;4.73;;;4.03;;
11125;SDS011;5617;54.046;10.676;2023-03-01T02:19:13;4.67;;;4.20;;
11125;SDS011;5617;54.046;10.676;2023-03-01T02:21:38;5.87;;;4.13;;
11125;SDS011;5617;54.046;10.676;2023-03-01T02:23:52;4.03;;;3.57;;
11125;SDS011;5617;54.046;10.676;2023-03-01T02:26:04;5.03;;;4.07;;
11125;SDS011;5617;54.046;10.676;2023-03-01T02:28:23;5.63;;;4.17;;
11125;SDS011;5617;54.046;10.676;2023-03-01T02:30:33;5.13;;;3.97;;
11125;SDS011;5617;54.046;10.676;2023-03-01T02:32:41;6.17;;;4.30;;
11125;SDS011;5617;54.046;10.676;2023-03-01T02:34:48;6.17;;;4.83;;
11125;SDS011;5617;54.046;10.676;2023-03-01T02:36:57;5.57;;;4.77;;
11125;SDS011;5617;54.046;10.676;2023-03-01T02:39:11;9.17;;;5.50;;
11125;SDS011;5617;54.046;10.676;2023-03-01T02:41:23;8.10;;;6.20;;
11125;SDS011;5617;54.046;10.676;2023-03-01T02:43:35;8.00;;;5.60;;
11125;SDS011;5617;54.046;10.676;2023-03-01T02:45:47;6.67;;;5.53;;
11125;SDS011;5617;54.046;10.676;2023-03-01T02:47:56;9.30;;;5.90;;
11125;SDS011;5617;54.046;10.676;2023-03-01T02:50:09;9.77;;;6.50;;
11125;SDS011;5617;54.046;10.676;2023-03-01T02:52:33;9.00;;;6.53;;
11125;SDS011;5617;54.046;10.676;2023-03-01T02:54:46;11.27;;;7.17;;
11125;SDS011;5617;54.046;10.676;2023-03-01T02:56:55;10.13;;;6.93;;
11125;SDS011;5617;54.046;10.676;2023-03-01T02:59:04;9.23;;;6.17;;
11125;SDS011;5617;54.046;10.676;2023-03-01T03:01:12;10.10;;;6.33;;
11125;SDS011;5617;54.046;10.676;2023-03-01T03:03:21;9.63;;;6.53;;
11125;SDS011;5617;54.046;10.676;2023-03-01T03:05:30;8.90;;;6.57;;
11125;SDS011;5617;54.046;10.676;2023-03-01T03:07:39;8.27;;;6.00;;
11125;SDS011;5617;54.046;10.676;2023-03-01T03:09:48;6.37;;;5.40;;
11125;SDS011;5617;54.046;10.676;2023-03-01T03:11:55;9.17;;;6.00;;
11125;SDS011;5617;54.046;10.676;2023-03-01T03:14:05;8.97;;;6.30;;
11125;SDS011;5617;54.046;10.676;2023-03-01T03:16:18;10.27;;;6.00;;
11125;SDS011;5617;54.046;10.676;2023-03-01T03:18:26;9.17;;;6.33;;
11125;SDS011;5617;54.046;10.676;2023-03-01T03:20:33;8.97;;;6.40;;
11125;SDS011;5617;54.046;10.676;2023-03-01T03:22:43;11.40;;;7.63;;
11125;SDS011;5617;54.046;10.676;2023-03-01T03:24:51;13.03;;;8.00;;
11125;SDS011;5617;54.046;10.676;2023-03-01T03:26:59;13.27;;;8.43;;
11125;SDS011;5617;54.046;10.676;2023-03-01T03:29:08;17.33;;;9.17;;
11125;SDS011;5617;54.046;10.676;2023-03-01T03:31:15;21.13;;;8.23;;
11125;SDS011;5617;54.046;10.676;2023-03-01T03:33:23;25.13;;;9.40;;
11125;SDS011;5617;54.046;10.676;2023-03-01T03:35:31;26.00;;;10.10;;
11125;SDS011;5617;54.046;10.676;2023-03-01T03:37:40;32.77;;;10.40;;
11125;SDS011;5617;54.046;10.676;2023-03-01T03:40:07;30.00;;;10.23;;
11125;SDS011;5617;54.046;10.676;2023-03-01T03:42:20;17.47;;;10.40;;
11125;SDS011;5617;54.046;10.676;2023-03-01T03:44:29;25.87;;;10.07;;
11125;SDS011;5617;54.046;10.676;2023-03-01T03:46:37;25.37;;;9.80;;
11125;SDS011;5617;54.046;10.676;2023-03-01T03:48:45;20.30;;;9.60;;
11125;SDS011;5617;54.046;10.676;2023-03-01T03:50:53;28.57;;;10.43;;
11125;SDS011;5617;54.046;10.676;2023-03-01T03:53:03;21.10;;;10.30;;
11125;SDS011;5617;54.046;10.676;2023-03-01T03:55:11;34.07;;;10.13;;
11125;SDS011;5617;54.046;10.676;2023-03-01T03:57:19;21.57;;;9.53;;
11125;SDS011;5617;54.046;10.676;2023-03-01T03:59:27;24.07;;;9.50;;
11125;SDS011;5617;54.046;10.676;2023-03-01T04:01:36;19.70;;;9.37;;
11125;SDS011;5617;54.046;10.676;2023-03-01T04:03:43;15.80;;;9.90;;
11125;SDS011;5617;54.046;10.676;2023-03-01T04:05:52;21.60;;;10.43;;
11125;SDS011;5617;54.046;10.676;2023-03-01T04:08:00;20.90;;;9.40;;
11125;SDS011;5617;54.046;10.676;2023-03-01T04:10:14;15.03;;;8.63;;
11125;SDS011;5617;54.046;10.676;2023-03-01T04:12:22;16.17;;;9.27;;
11125;SDS011;5617;54.046;10.676;2023-03-01T04:14:30;18.90;;;9.23;;
11125;SDS011;5617;54.046;10.676;2023-03-01T04:16:39;20.03;;;9.87;;
11125;SDS011;5617;54.046;10.676;2023-03-01T04:18:46;20.73;;;9.70;;
11125;SDS011;5617;54.046;10.676;2023-03-01T04:20:54;50.60;;;10.37;;
11125;SDS011;5617;54.046;10.676;2023-03-01T04:23:05;18.70;;;9.40;;
11125;SDS011;5617;54.046;10.676;2023-03-01T04:25:21;25.33;;;8.90;;
11125;SDS011;5617;54.046;10.676;2023-03-01T04:27:29;12.83;;;8.53;;
11125;SDS011;5617;54.046;10.676;2023-03-01T04:29:37;16.00;;;9.50;;
11125;SDS011;5617;54.046;10.676;2023-03-01T04:31:45;18.73;;;8.63;;
11125;SDS011;5617;54.046;10.676;2023-03-01T04:33:55;14.50;;;8.97;;
11125;SDS011;5617;54.046;10.676;2023-03-01T04:36:03;16.07;;;8.47;;
11125;SDS011;5617;54.046;10.676;2023-03-01T04:38:11;20.27;;;9.13;;
11125;SDS011;5617;54.046;10.676;2023-03-01T04:40:18;18.27;;;8.90;;
11125;SDS011;5617;54.046;10.676;2023-03-01T04:42:27;16.57;;;8.33;;
11125;SDS011;5617;54.046;10.676;2023-03-01T04:44:34;13.60;;;8.73;;
11125;SDS011;5617;54.046;10.676;2023-03-01T04:46:42;17.27;;;8.40;;
11125;SDS011;5617;54.046;10.676;2023-03-01T04:48:51;20.70;;;8.50;;
11125;SDS011;5617;54.046;10.676;2023-03-01T04:50:58;41.43;;;9.90;;
11125;SDS011;5617;54.046;10.676;2023-03-01T04:53:06;14.00;;;8.67;;
11125;SDS011;5617;54.046;10.676;2023-03-01T04:55:14;16.87;;;8.43;;
11125;SDS011;5617;54.046;10.676;2023-03-01T04:57:22;13.60;;;8.23;;
11125;SDS011;5617;54.046;10.676;2023-03-01T04:59:29;13.47;;;8.50;;
11125;SDS011;5617;54.046;10.676;2023-03-01T05:01:36;13.03;;;9.00;;
11125;SDS011;5617;54.046;10.676;2023-03-01T05:03:45;12.90;;;9.33;;
11125;SDS011;5617;54.046;10.676;2023-03-01T05:05:58;13.93;;;8.77;;
11125;SDS011;5617;54.046;10.676;2023-03-01T05:08:07;18.30;;;9.00;;
11125;SDS011;5617;54.046;10.676;2023-03-01T05:10:23;15.63;;;8.30;;
11125;SDS011;5617;54.046;10.676;2023-03-01T05:12:31;19.63;;;9.17;;
11125;SDS011;5617;54.046;10.676;2023-03-01T05:14:38;13.13;;;8.37;;
11125;SDS011;5617;54.046;10.676;2023-03-01T05:16:46;14.17;;;7.93;;
11125;SDS011;5617;54.046;10.676;2023-03-01T05:18:54;10.67;;;7.73;;
11125;SDS011;5617;54.046;10.676;2023-03-01T05:21:04;11.00;;;8.20;;
11125;SDS011;5617;54.046;10.676;2023-03-01T05:23:13;9.57;;;7.40;;
11125;SDS011;5617;54.046;10.676;2023-03-01T05:25:21;11.20;;;8.00;;
11125;SDS011;5617;54.046;10.676;2023-03-01T05:27:29;9.23;;;6.57;;
11125;SDS011;5617;54.046;10.676;2023-03-01T05:29:36;10.03;;;7.37;;
11125;SDS011;5617;54.046;10.676;2023-03-01T05:31:45;9.27;;;7.23;;
11125;SDS011;5617;54.046;10.676;2023-03-01T05:33:52;9.97;;;7.27;;
11125;SDS011;5617;54.046;10.676;2023-03-01T05:36:00;12.83;;;8.00;;
11125;SDS011;5617;54.046;10.676;2023-03-01T05:38:14;12.30;;;8.40;;
11125;SDS011;5617;54.046;10.676;2023-03-01T05:40:24;16.70;;;8.77;;
11125;SDS011;5617;54.046;10.676;2023-03-01T05:42:32;12.73;;;9.13;;
11125;SDS011;5617;54.046;10.676;2023-03-01T05:44:39;15.73;;;8.63;;
11125;SDS011;5617;54.046;10.676;2023-03-01T05:46:47;16.03;;;8.40;;
11125;SDS011;5617;54.046;10.676;2023-03-01T05:48:55;11.40;;;7.73;;
11125;SDS011;5617;54.046;10.676;2023-03-01T05:51:03;11.80;;;7.60;;
11125;SDS011;5617;54.046;10.676;2023-03-01T05:53:11;13.87;;;8.17;;
11125;SDS011;5617;54.046;10.676;2023-03-01T05:55:22;16.60;;;8.13;;
11125;SDS011;5617;54.046;10.676;2023-03-01T05:57:30;14.30;;;7.93;;
11125;SDS011;5617;54.046;10.676;2023-03-01T05:59:38;12.80;;;8.27;;
11125;SDS011;5617;54.046;10.676;2023-03-01T06:01:45;12.37;;;7.27;;
11125;SDS011;5617;54.046;10.676;2023-03-01T06:03:53;10.60;;;7.73;;
11125;SDS011;5617;54.046;10.676;2023-03-01T06:06:01;10.80;;;7.37;;
11125;SDS011;5617;54.046;10.676;2023-03-01T06:08:09;10.27;;;7.23;;
11125;SDS011;5617;54.046;10.676;2023-03-01T06:10:18;11.87;;;7.93;;
11125;SDS011;5617;54.046;10.676;2023-03-01T06:12:30;10.60;;;7.97;;
11125;SDS011;5617;54.046;10.676;2023-03-01T06:14:39;11.13;;;8.13;;
11125;SDS011;5617;54.046;10.676;2023-03-01T06:16:46;12.67;;;7.57;;
11125;SDS011;5617;54.046;10.676;2023-03-01T06:18:53;23.97;;;8.00;;
11125;SDS011;5617;54.046;10.676;2023-03-01T06:21:01;16.60;;;7.47;;
11125;SDS011;5617;54.046;10.676;2023-03-01T06:23:09;11.83;;;7.87;;
11125;SDS011;5617;54.046;10.676;2023-03-01T06:25:18;24.10;;;8.37;;
11125;SDS011;5617;54.046;10.676;2023-03-01T06:27:26;10.73;;;8.37;;
11125;SDS011;5617;54.046;10.676;2023-03-01T06:29:35;28.17;;;8.67;;
11125;SDS011;5617;54.046;10.676;2023-03-01T06:31:43;10.00;;;7.73;;
11125;SDS011;5617;54.046;10.676;2023-03-01T06:33:51;11.27;;;7.90;;
11125;SDS011;5617;54.046;10.676;2023-03-01T06:35:59;10.53;;;7.77;;
11125;SDS011;5617;54.046;10.676;2023-03-01T06:38:06;13.37;;;7.90;;
11125;SDS011;5617;54.046;10.676;2023-03-01T06:40:15;11.37;;;8.13;;
11125;SDS011;5617;54.046;10.676;2023-03-01T06:42:23;13.70;;;9.03;;
11125;SDS011;5617;54.046;10.676;2023-03-01T06:44:30;10.93;;;7.93;;
11125;SDS011;5617;54.046;10.676;2023-03-01T06:46:39;32.87;;;8.17;;
11125;SDS011;5617;54.046;10.676;2023-03-01T06:48:47;10.43;;;7.50;;
11125;SDS011;5617;54.046;10.676;2023-03-01T06:50:57;27.17;;;8.20;;
11125;SDS011;5617;54.046;10.676;2023-03-01T06:53:05;43.00;;;8.17;;
11125;SDS011;5617;54.046;10.676;2023-03-01T06:55:13;48.17;;;9.23;;
11125;SDS011;5617;54.046;10.676;2023-03-01T06:57:21;14.07;;;7.50;;
11125;SDS011;5617;54.046;10.676;2023-03-01T06:59:28;10.30;;;6.97;;
11125;SDS011;5617;54.046;10.676;2023-03-01T07:01:37;11.43;;;7.07;;
11125;SDS011;5617;54.046;10.676;2023-03-01T07:03:46;9.43;;;6.97;;
11125;SDS011;5617;54.046;10.676;2023-03-01T07:05:54;11.37;;;6.57;;
11125;SDS011;5617;54.046;10.676;2023-03-01T07:08:01;11.17;;;6.90;;
11125;SDS011;5617;54.046;10.676;2023-03-01T07:10:10;10.10;;;6.60;;
11125;SDS011;5617;54.046;10.676;2023-03-01T07:12:19;12.80;;;6.57;;
11125;SDS011;5617;54.046;10.676;2023-03-01T07:14:26;12.73;;;6.70;;
11125;SDS011;5617;54.046;10.676;2023-03-01T07:16:34;16.30;;;6.73;;
11125;SDS011;5617;54.046;10.676;2023-03-01T07:18:42;19.73;;;7.23;;
11125;SDS011;5617;54.046;10.676;2023-03-01T07:20:51;11.63;;;6.90;;
11125;SDS011;5617;54.046;10.676;2023-03-01T07:22:58;10.93;;;6.93;;
11125;SDS011;5617;54.046;10.676;2023-03-01T07:25:06;12.93;;;7.33;;
11125;SDS011;5617;54.046;10.676;2023-03-01T07:27:14;13.97;;;6.77;;
11125;SDS011;5617;54.046;10.676;2023-03-01T07:29:21;15.87;;;7.13;;
11125;SDS011;5617;54.046;10.676;2023-03-01T07:31:29;11.80;;;7.17;;
11125;SDS011;5617;54.046;10.676;2023-03-01T07:33:37;9.23;;;7.40;;
11125;SDS011;5617;54.046;10.676;2023-03-01T07:35:44;10.43;;;6.63;;
11125;SDS011;5617;54.046;10.676;2023-03-01T07:37:53;17.57;;;6.97;;
11125;SDS011;5617;54.046;10.676;2023-03-01T07:40:01;11.47;;;7.10;;
11125;SDS011;5617;54.046;10.676;2023-03-01T07:42:09;17.90;;;7.47;;
11125;SDS011;5617;54.046;10.676;2023-03-01T07:44:17;9.67;;;6.87;;
11125;SDS011;5617;54.046;10.676;2023-03-01T07:46:24;9.60;;;6.60;;
11125;SDS011;5617;54.046;10.676;2023-03-01T07:48:32;14.17;;;6.90;;
11125;SDS011;5617;54.046;10.676;2023-03-01T07:50:40;9.00;;;6.77;;
11125;SDS011;5617;54.046;10.676;2023-03-01T07:52:49;10.80;;;7.00;;
11125;SDS011;5617;54.046;10.676;2023-03-01T07:54:58;8.43;;;6.07;;
11125;SDS011;5617;54.046;10.676;2023-03-01T07:57:05;10.13;;;6.70;;
11125;SDS011;5617;54.046;10.676;2023-03-01T07:59:13;9.80;;;7.20;;
11125;SDS011;5617;54.046;10.676;2023-03-01T08:01:21;9.33;;;6.50;;
11125;SDS011;5617;54.046;10.676;2023-03-01T08:03:29;9.00;;;6.50;;
11125;SDS011;5617;54.046;10.676;2023-03-01T08:05:37;10.20;;;6.97;;
11125;SDS011;5617;54.046;10.676;2023-03-01T08:07:44;8.10;;;6.37;;
11125;SDS011;5617;54.046;10.676;2023-03-01T08:09:52;9.37;;;6.63;;
11125;SDS011;5617;54.046;10.676;2023-03-01T08:12:01;15.77;;;7.53;;
11125;SDS011;5617;54.046;10.676;2023-03-01T08:14:10;12.80;;;7.13;;
11125;SDS011;5617;54.046;10.676;2023-03-01T08:16:18;9.40;;;7.13;;
11125;SDS011;5617;54.046;10.676;2023-03-01T08:18:25;8.73;;;6.97;;
11125;SDS011;5617;54.046;10.676;2023-03-01T08:20:33;10.87;;;7.30;;
11125;SDS011;5617;54.046;10.676;2023-03-01T08:22:40;12.63;;;7.00;;
11125;SDS011;5617;54.046;10.676;2023-03-01T08:24:48;10.93;;;6.70;;
11125;SDS011;5617;54.046;10.676;2023-03-01T08:26:56;13.63;;;7.47;;
11125;SDS011;5617;54.046;10.676;2023-03-01T08:29:05;10.67;;;7.67;;
11125;SDS011;5617;54.046;10.676;2023-03-01T08:31:13;11.27;;;7.83;;
11125;SDS011;5617;54.046;10.676;2023-03-01T08:33:21;10.03;;;7.20;;
11125;SDS011;5617;54.046;10.676;2023-03-01T08:35:29;10.77;;;7.17;;
11125;SDS011;5617;54.046;10.676;2023-03-01T08:37:36;9.37;;;7.10;;
11125;SDS011;5617;54.046;10.676;2023-03-01T08:39:44;9.23;;;7.30;;
11125;SDS011;5617;54.046;10.676;2023-03-01T08:41:51;12.47;;;7.33;;
11125;SDS011;5617;54.046;10.676;2023-03-01T08:43:59;9.87;;;6.87;;
11125;SDS011;5617;54.046;10.676;2023-03-01T08:46:08;10.20;;;7.47;;
11125;SDS011;5617;54.046;10.676;2023-03-01T08:48:16;8.80;;;7.03;;
11125;SDS011;5617;54.046;10.676;2023-03-01T08:50:24;8.77;;;6.97;;
11125;SDS011;5617;54.046;10.676;2023-03-01T08:52:31;8.80;;;6.70;;
11125;SDS011;5617;54.046;10.676;2023-03-01T08:54:40;9.30;;;7.00;;
11125;SDS011;5617;54.046;10.676;2023-03-01T08:56:50;9.47;;;7.10;;
11125;SDS011;5617;54.046;10.676;2023-03-01T08:58:57;11.70;;;7.03;;
11125;SDS011;5617;54.046;10.676;2023-03-01T09:01:09;7.30;;;6.27;;
11125;SDS011;5617;54.046;10.676;2023-03-01T09:03:18;7.83;;;6.90;;
11125;SDS011;5617;54.046;10.676;2023-03-01T09:05:26;7.47;;;6.27;;
11125;SDS011;5617;54.046;10.676;2023-03-01T09:07:34;8.23;;;6.87;;
11125;SDS011;5617;54.046;10.676;2023-03-01T09:09:42;9.47;;;6.90;;
11125;SDS011;5617;54.046;10.676;2023-03-01T09:11:49;10.23;;;6.87;;
11125;SDS011;5617;54.046;10.676;2023-03-01T09:13:57;7.77;;;6.57;;
11125;SDS011;5617;54.046;10.676;2023-03-01T09:16:05;12.67;;;6.70;;
11125;SDS011;5617;54.046;10.676;2023-03-01T09:18:15;8.37;;;6.60;;
11125;SDS011;5617;54.046;10.676;2023-03-01T09:20:24;13.50;;;7.03;;
11125;SDS011;5617;54.046;10.676;2023-03-01T09:22:32;9.13;;;6.87;;
11125;SDS011;5617;54.046;10.676;2023-03-01T09:24:40;11.70;;;7.40;;
11125;SDS011;5617;54.046;10.676;2023-03-01T09:26:52;11.63;;;6.53;;
11125;SDS011;5617;54.046;10.676;2023-03-01T09:29:00;20.57;;;7.10;;
11125;SDS011;5617;54.046;10.676;2023-03-01T09:31:08;14.37;;;6.77;;
11125;SDS011;5617;54.046;10.676;2023-03-01T09:33:19;9.07;;;6.97;;
11125;SDS011;5617;54.046;10.676;2023-03-01T09:35:27;13.10;;;6.63;;
11125;SDS011;5617;54.046;10.676;2023-03-01T09:37:35;22.57;;;6.77;;
11125;SDS011;5617;54.046;10.676;2023-03-01T09:39:44;10.73;;;6.77;;
11125;SDS011;5617;54.046;10.676;2023-03-01T09:41:54;9.77;;;6.33;;
11125;SDS011;5617;54.046;10.676;2023-03-01T09:44:10;14.57;;;7.20;;
11125;SDS011;5617;54.046;10.676;2023-03-01T09:46:25;8.63;;;6.63;;
11125;SDS011;5617;54.046;10.676;2023-03-01T09:48:38;10.13;;;7.07;;
11125;SDS011;5617;54.046;10.676;2023-03-01T09:50:51;13.80;;;7.17;;
11125;SDS011;5617;54.046;10.676;2023-03-01T09:53:00;8.97;;;7.33;;
11125;SDS011;5617;54.046;10.676;2023-03-01T09:55:11;12.50;;;7.03;;
11125;SDS011;5617;54.046;10.676;2023-03-01T09:57:24;8.67;;;6.83;;
11125;SDS011;5617;54.046;10.676;2023-03-01T09:59:38;13.17;;;6.90;;
11125;SDS011;5617;54.046;10.676;2023-03-01T10:02:00;11.73;;;6.93;;
11125;SDS011;5617;54.046;10.676;2023-03-01T10:04:35;16.90;;;8.13;;
11125;SDS011;5617;54.046;10.676;2023-03-01T10:06:50;10.93;;;6.77;;
11125;SDS011;5617;54.046;10.676;2023-03-01T10:09:05;10.57;;;6.63;;
11125;SDS011;5617;54.046;10.676;2023-03-01T10:11:20;12.90;;;7.60;;
11125;SDS011;5617;54.046;10.676;2023-03-01T10:13:33;21.93;;;8.03;;
11125;SDS011;5617;54.046;10.676;2023-03-01T10:15:49;12.17;;;7.43;;
11125;SDS011;5617;54.046;10.676;2023-03-01T10:18:01;13.97;;;8.20;;
11125;SDS011;5617;54.046;10.676;2023-03-01T10:20:19;11.33;;;8.07;;
11125;SDS011;5617;54.046;10.676;2023-03-01T10:22:28;11.80;;;8.70;;
11125;SDS011;5617;54.046;10.676;2023-03-01T10:24:38;11.17;;;7.80;;
11125;SDS011;5617;54.046;10.676;2023-03-01T10:26:47;13.07;;;9.30;;
11125;SDS011;5617;54.046;10.676;2023-03-01T10:29:01;12.27;;;8.67;;
11125;SDS011;5617;54.046;10.676;2023-03-01T10:31:11;15.50;;;8.70;;
11125;SDS011;5617;54.046;10.676;2023-03-01T10:33:21;10.40;;;8.17;;
11125;SDS011;5617;54.046;10.676;2023-03-01T10:35:33;10.70;;;8.67;;
11125;SDS011;5617;54.046;10.676;2023-03-01T10:37:46;12.03;;;7.53;;
11125;SDS011;5617;54.046;10.676;2023-03-01T10:40:05;11.30;;;8.20;;
11125;SDS011;5617;54.046;10.676;2023-03-01T10:42:19;10.43;;;7.57;;
11125;SDS011;5617;54.046;10.676;2023-03-01T10:44:35;9.30;;;7.13;;
11125;SDS011;5617;54.046;10.676;2023-03-01T10:46:47;9.90;;;7.63;;
11125;SDS011;5617;54.046;10.676;2023-03-01T10:49:10;9.43;;;7.80;;
11125;SDS011;5617;54.046;10.676;2023-03-01T10:51:23;9.90;;;7.97;;
11125;SDS011;5617;54.046;10.676;2023-03-01T10:53:32;9.90;;;8.23;;
11125;SDS011;5617;54.046;10.676;2023-03-01T10:55:41;10.13;;;8.40;;
11125;SDS011;5617;54.046;10.676;2023-03-01T10:57:50;12.20;;;7.83;;
11125;SDS011;5617;54.046;10.676;2023-03-01T11:00:22;9.90;;;7.70;;
11125;SDS011;5617;54.046;10.676;2023-03-01T11:02:31;11.17;;;7.93;;
11125;SDS011;5617;54.046;10.676;2023-03-01T11:04:39;9.77;;;7.57;;
11125;SDS011;5617;54.046;10.676;2023-03-01T11:07:04;9.53;;;8.07;;
11125;SDS011;5617;54.046;10.676;2023-03-01T11:09:15;9.13;;;7.30;;
11125;SDS011;5617;54.046;10.676;2023-03-01T11:11:31;9.27;;;7.20;;
11125;SDS011;5617;54.046;10.676;2023-03-01T11:13:46;7.57;;;6.70;;
11125;SDS011;5617;54.046;10.676;2023-03-01T11:15:58;10.67;;;6.50;;
11125;SDS011;5617;54.046;10.676;2023-03-01T11:18:15;6.60;;;5.90;;
11125;SDS011;5617;54.046;10.676;2023-03-01T11:20:27;7.43;;;6.20;;
11125;SDS011;5617;54.046;10.676;2023-03-01T11:22:39;7.87;;;6.80;;
11125;SDS011;5617;54.046;10.676;2023-03-01T11:24:54;8.13;;;6.90;;
11125;SDS011;5617;54.046;10.676;2023-03-01T11:27:04;8.70;;;6.83;;
11125;SDS011;5617;54.046;10.676;2023-03-01T11:29:21;9.17;;;7.40;;
11125;SDS011;5617;54.046;10.676;2023-03-01T11:31:37;8.70;;;7.20;;
11125;SDS011;5617;54.046;10.676;2023-03-01T11:33:48;10.03;;;7.90;;
11125;SDS011;5617;54.046;10.676;2023-03-01T11:36:01;10.30;;;8.33;;
11125;SDS011;5617;54.046;10.676;2023-03-01T11:38:17;7.90;;;6.87;;
11125;SDS011;5617;54.046;10.676;2023-03-01T11:40:29;8.43;;;7.23;;
11125;SDS011;5617;54.046;10.676;2023-03-01T11:42:43;9.83;;;7.77;;
11125;SDS011;5617;54.046;10.676;2023-03-01T11:44:59;8.77;;;7.10;;
11125;SDS011;5617;54.046;10.676;2023-03-01T11:47:15;7.70;;;6.90;;
11125;SDS011;5617;54.046;10.676;2023-03-01T11:49:41;9.20;;;6.63;;
11125;SDS011;5617;54.046;10.676;2023-03-01T11:52:01;7.60;;;6.80;;
11125;SDS011;5617;54.046;10.676;2023-03-01T11:54:24;7.70;;;6.90;;
11125;SDS011;5617;54.046;10.676;2023-03-01T11:56:41;10.40;;;7.80;;
11125;SDS011;5617;54.046;10.676;2023-03-01T11:58:59;8.57;;;6.77;;
11125;SDS011;5617;54.046;10.676;2023-03-01T12:01:19;7.50;;;6.70;;
11125;SDS011;5617;54.046;10.676;2023-03-01T12:06:18;7.67;;;6.70;;
11125;SDS011;5617;54.046;10.676;2023-03-01T12:08:37;7.33;;;6.40;;
11125;SDS011;5617;54.046;10.676;2023-03-01T12:10:51;6.27;;;5.67;;
11125;SDS011;5617;54.046;10.676;2023-03-01T12:13:08;7.00;;;6.30;;
11125;SDS011;5617;54.046;10.676;2023-03-01T12:15:37;8.50;;;6.33;;
11125;SDS011;5617;54.046;10.676;2023-03-01T12:17:59;6.50;;;5.73;;
11125;SDS011;5617;54.046;10.676;2023-03-01T12:20:31;10.83;;;5.83;;
11125;SDS011;5617;54.046;10.676;2023-03-01T12:22:45;6.77;;;5.70;;
11125;SDS011;5617;54.046;10.676;2023-03-01T12:25:16;7.00;;;6.10;;
11125;SDS011;5617;54.046;10.676;2023-03-01T12:27:36;6.73;;;5.67;;
11125;SDS011;5617;54.046;10.676;2023-03-01T12:29:59;5.73;;;5.13;;
11125;SDS011;5617;54.046;10.676;2023-03-01T12:32:28;7.90;;;5.90;;
11125;SDS011;5617;54.046;10.676;2023-03-01T12:34:49;8.37;;;5.80;;
11125;SDS011;5617;54.046;10.676;2023-03-01T12:37:19;6.20;;;5.20;;
11125;SDS011;5617;54.046;10.676;2023-03-01T12:39:35;6.77;;;5.63;;
11125;SDS011;5617;54.046;10.676;2023-03-01T12:41:53;6.97;;;5.43;;
11125;SDS011;5617;54.046;10.676;2023-03-01T12:44:13;6.57;;;5.30;;
11125;SDS011;5617;54.046;10.676;2023-03-01T12:46:34;6.03;;;5.43;;
11125;SDS011;5617;54.046;10.676;2023-03-01T12:48:51;6.20;;;5.60;;
11125;SDS011;5617;54.046;10.676;2023-03-01T12:51:10;8.13;;;5.80;;
11125;SDS011;5617;54.046;10.676;2023-03-01T12:53:22;5.60;;;5.00;;
11125;SDS011;5617;54.046;10.676;2023-03-01T12:55:33;5.80;;;5.20;;
11125;SDS011;5617;54.046;10.676;2023-03-01T12:57:44;8.30;;;5.83;;
11125;SDS011;5617;54.046;10.676;2023-03-01T13:00:02;5.97;;;5.37;;
11125;SDS011;5617;54.046;10.676;2023-03-01T13:02:22;5.60;;;5.10;;
11125;SDS011;5617;54.046;10.676;2023-03-01T13:04:40;5.53;;;5.03;;